sensor_id;sensor_type;location;lat;lon;timestamp;temperature;humidity
22984;DHT22;11658;48.908;9.140;2022-10-16T05:02:38;15.40;99.90
22984;DHT22;11658;48.908;9.140;2022-10-16T05:05:03;15.40;99.90
22984;DHT22;11658;48.908;9.140;2022-10-16T05:07:29;15.40;99.90
22984;DHT22;11658;48.908;9.140;2022-10-16T05:09:55;15.40;99.90
22984;DHT22;11658;48.908;9.140;2022-10-16T05:12:20;15.40;99.90
22984;DHT22;11658;48.908;9.140;2022-10-16T05:14:46;15.50;99.90
22984;DHT22;11658;48.908;9.140;2022-10-16T05:17:11;15.40;99.90
22984;DHT22;11658;48.908;9.140;2022-10-16T05:19:37;15.30;99.90
22984;DHT22;11658;48.908;9.140;2022-10-16T05:22:02;15.20;99.90
22984;DHT22;11658;48.908;9.140;2022-10-16T05:24:28;15.20;99.90
22984;DHT22;11658;48.908;9.140;2022-10-16T05:26:54;15.20;99.90
22984;DHT22;11658;48.908;9.140;2022-10-16T05:29:19;15.20;99.90
22984;DHT22;11658;48.908;9.140;2022-10-16T05:31:45;15.20;99.90
22984;DHT22;11658;48.908;9.140;2022-10-16T05:34:11;15.20;99.90
22984;DHT22;11658;48.908;9.140;2022-10-16T05:36:36;15.20;99.90
22984;DHT22;11658;48.908;9.140;2022-10-16T05:39:02;15.20;99.90
22984;DHT22;11658;48.908;9.140;2022-10-16T05:41:28;15.10;99.90
22984;DHT22;11658;48.908;9.140;2022-10-16T05:43:54;15.10;99.90
22984;DHT22;11658;48.908;9.140;2022-10-16T05:46:19;15.10;99.90
22984;DHT22;11658;48.908;9.140;2022-10-16T05:48:45;15.20;99.90
22984;DHT22;11658;48.908;9.140;2022-10-16T05:51:13;15.20;99.90
22984;DHT22;11658;48.908;9.140;2022-10-16T05:53:40;15.20;99.90
22984;DHT22;11658;48.908;9.140;2022-10-16T05:56:07;15.30;99.90
22984;DHT22;11658;48.908;9.140;2022-10-16T05:58:36;15.30;99.90
22984;DHT22;11658;48.908;9.140;2022-10-16T06:01:07;15.30;99.90
22984;DHT22;11658;48.908;9.140;2022-10-16T06:03:33;15.30;99.90
22984;DHT22;11658;48.908;9.140;2022-10-16T06:05:59;15.30;99.90
22984;DHT22;11658;48.908;9.140;2022-10-16T06:08:25;15.30;99.90
22984;DHT22;11658;48.908;9.140;2022-10-16T06:11:01;15.30;99.90
22984;DHT22;11658;48.908;9.140;2022-10-16T06:13:27;15.20;99.90
22984;DHT22;11658;48.908;9.140;2022-10-16T06:15:53;15.30;99.90
22984;DHT22;11658;48.908;9.140;2022-10-16T06:18:18;15.30;99.90
22984;DHT22;11658;48.908;9.140;2022-10-16T06:20:44;15.30;99.90
22984;DHT22;11658;48.908;9.140;2022-10-16T06:23:09;15.40;99.90
22984;DHT22;11658;48.908;9.140;2022-10-16T06:25:35;15.50;99.90
22984;DHT22;11658;48.908;9.140;2022-10-16T06:28:00;15.50;99.90
22984;DHT22;11658;48.908;9.140;2022-10-16T06:30:26;15.50;99.90
22984;DHT22;11658;48.908;9.140;2022-10-16T06:32:51;15.50;99.90
22984;DHT22;11658;48.908;9.140;2022-10-16T06:35:17;15.60;99.90
22984;DHT22;11658;48.908;9.140;2022-10-16T06:37:42;15.60;99.90
22984;DHT22;11658;48.908;9.140;2022-10-16T06:40:08;15.70;99.90
22984;DHT22;11658;48.908;9.140;2022-10-16T06:42:34;15.70;99.90
22984;DHT22;11658;48.908;9.140;2022-10-16T06:44:59;15.80;99.90
22984;DHT22;11658;48.908;9.140;2022-10-16T06:47:25;15.80;99.90
22984;DHT22;11658;48.908;9.140;2022-10-16T06:49:50;15.90;99.90
22984;DHT22;11658;48.908;9.140;2022-10-16T06:52:16;15.90;99.90
22984;DHT22;11658;48.908;9.140;2022-10-16T06:54:41;16.00;99.90
22984;DHT22;11658;48.908;9.140;2022-10-16T06:57:07;16.10;99.90
22984;DHT22;11658;48.908;9.140;2022-10-16T06:59:32;16.10;99.90
22984;DHT22;11658;48.908;9.140;2022-10-16T07:01:58;16.10;99.90
22984;DHT22;11658;48.908;9.140;2022-10-16T07:04:23;16.10;99.90
22984;DHT22;11658;48.908;9.140;2022-10-16T07:06:49;16.10;99.90
22984;DHT22;11658;48.908;9.140;2022-10-16T07:09:17;16.30;99.90
22984;DHT22;11658;48.908;9.140;2022-10-16T07:11:42;16.30;99.90
22984;DHT22;11658;48.908;9.140;2022-10-16T07:14:16;16.40;99.90
22984;DHT22;11658;48.908;9.140;2022-10-16T07:16:41;16.30;99.90
22984;DHT22;11658;48.908;9.140;2022-10-16T07:19:08;16.30;99.90
22984;DHT22;11658;48.908;9.140;2022-10-16T07:21:34;16.40;99.90
22984;DHT22;11658;48.908;9.140;2022-10-16T07:24:05;16.40;99.90
22984;DHT22;11658;48.908;9.140;2022-10-16T07:26:33;16.40;99.90
22984;DHT22;11658;48.908;9.140;2022-10-16T07:28:59;16.30;99.90
22984;DHT22;11658;48.908;9.140;2022-10-16T07:31:25;16.30;99.90
22984;DHT22;11658;48.908;9.140;2022-10-16T07:33:51;16.30;99.90
22984;DHT22;11658;48.908;9.140;2022-10-16T07:36:18;16.40;99.90
22984;DHT22;11658;48.908;9.140;2022-10-16T07:38:44;16.40;99.90
22984;DHT22;11658;48.908;9.140;2022-10-16T07:41:15;16.40;99.90
22984;DHT22;11658;48.908;9.140;2022-10-16T07:43:48;16.40;99.90
22984;DHT22;11658;48.908;9.140;2022-10-16T07:46:15;16.40;99.90
22984;DHT22;11658;48.908;9.140;2022-10-16T07:48:42;16.40;99.90
22984;DHT22;11658;48.908;9.140;2022-10-16T07:51:11;16.50;99.90
22984;DHT22;11658;48.908;9.140;2022-10-16T07:53:37;16.60;99.90
22984;DHT22;11658;48.908;9.140;2022-10-16T07:56:05;16.70;99.90
22984;DHT22;11658;48.908;9.140;2022-10-16T07:58:31;16.90;99.90
22984;DHT22;11658;48.908;9.140;2022-10-16T08:00:57;17.00;99.90
22984;DHT22;11658;48.908;9.140;2022-10-16T08:03:24;17.20;99.90
22984;DHT22;11658;48.908;9.140;2022-10-16T08:05:50;17.50;99.90
22984;DHT22;11658;48.908;9.140;2022-10-16T08:08:17;17.80;99.90
22984;DHT22;11658;48.908;9.140;2022-10-16T08:10:42;18.00;99.90
22984;DHT22;11658;48.908;9.140;2022-10-16T08:13:08;18.20;99.90
22984;DHT22;11658;48.908;9.140;2022-10-16T08:15:34;18.40;99.90
22984;DHT22;11658;48.908;9.140;2022-10-16T08:18:05;18.50;99.90
22984;DHT22;11658;48.908;9.140;2022-10-16T08:20:32;18.60;99.90
22984;DHT22;11658;48.908;9.140;2022-10-16T08:22:59;18.80;99.90
22984;DHT22;11658;48.908;9.140;2022-10-16T08:25:24;19.10;99.90
22984;DHT22;11658;48.908;9.140;2022-10-16T08:27:50;19.30;99.90
22984;DHT22;11658;48.908;9.140;2022-10-16T08:30:17;19.50;99.90
22984;DHT22;11658;48.908;9.140;2022-10-16T08:32:44;19.60;99.90
22984;DHT22;11658;48.908;9.140;2022-10-16T08:35:10;19.60;99.90
22984;DHT22;11658;48.908;9.140;2022-10-16T08:37:36;19.50;99.90
22984;DHT22;11658;48.908;9.140;2022-10-16T08:40:03;19.50;99.90
22984;DHT22;11658;48.908;9.140;2022-10-16T08:50:24;19.00;99.90
22984;DHT22;11658;48.908;9.140;2022-10-16T08:52:50;19.10;99.90
22984;DHT22;11658;48.908;9.140;2022-10-16T08:55:41;19.00;99.90
22984;DHT22;11658;48.908;9.140;2022-10-16T08:58:19;19.00;99.90
22984;DHT22;11658;48.908;9.140;2022-10-16T09:00:57;19.00;99.90
22984;DHT22;11658;48.908;9.140;2022-10-16T09:22:43;19.70;99.90
22984;DHT22;11658;48.908;9.140;2022-10-16T09:25:15;19.70;99.90
22984;DHT22;11658;48.908;9.140;2022-10-16T09:27:43;19.70;99.90
22984;DHT22;11658;48.908;9.140;2022-10-16T09:30:14;19.60;99.90
22984;DHT22;11658;48.908;9.140;2022-10-16T09:32:41;19.60;99.90
22984;DHT22;11658;48.908;9.140;2022-10-16T09:35:15;19.60;99.90
22984;DHT22;11658;48.908;9.140;2022-10-16T09:37:43;19.60;99.90
22984;DHT22;11658;48.908;9.140;2022-10-16T09:40:23;19.70;99.90
22984;DHT22;11658;48.908;9.140;2022-10-16T09:42:50;19.80;99.90
22984;DHT22;11658;48.908;9.140;2022-10-16T09:45:23;19.90;99.90
22984;DHT22;11658;48.908;9.140;2022-10-16T09:47:49;20.10;99.90
22984;DHT22;11658;48.908;9.140;2022-10-16T09:50:28;20.40;99.90
22984;DHT22;11658;48.908;9.140;2022-10-16T09:55:35;20.70;99.90
22984;DHT22;11658;48.908;9.140;2022-10-16T09:58:01;20.90;99.90
22984;DHT22;11658;48.908;9.140;2022-10-16T10:00:26;21.00;99.90
22984;DHT22;11658;48.908;9.140;2022-10-16T10:02:53;21.00;99.90
22984;DHT22;11658;48.908;9.140;2022-10-16T10:05:28;21.00;99.90
22984;DHT22;11658;48.908;9.140;2022-10-16T10:08:01;21.00;99.90
22984;DHT22;11658;48.908;9.140;2022-10-16T10:10:39;21.10;99.90
22984;DHT22;11658;48.908;9.140;2022-10-16T10:13:21;21.00;99.90
22984;DHT22;11658;48.908;9.140;2022-10-16T10:15:47;21.10;99.90
22984;DHT22;11658;48.908;9.140;2022-10-16T10:18:20;21.10;99.90
22984;DHT22;11658;48.908;9.140;2022-10-16T10:20:59;21.20;99.90
22984;DHT22;11658;48.908;9.140;2022-10-16T10:23:27;21.20;99.90
22984;DHT22;11658;48.908;9.140;2022-10-16T10:26:24;21.20;99.90
22984;DHT22;11658;48.908;9.140;2022-10-16T10:32:07;21.50;99.90
22984;DHT22;11658;48.908;9.140;2022-10-16T10:34:56;21.70;99.90
22984;DHT22;11658;48.908;9.140;2022-10-16T10:37:37;21.90;99.90
22984;DHT22;11658;48.908;9.140;2022-10-16T10:43:04;22.30;99.90
22984;DHT22;11658;48.908;9.140;2022-10-16T10:45:46;22.60;99.90
22984;DHT22;11658;48.908;9.140;2022-10-16T11:07:04;23.90;99.90
22984;DHT22;11658;48.908;9.140;2022-10-16T11:09:38;24.00;99.90
22984;DHT22;11658;48.908;9.140;2022-10-16T11:12:21;24.00;99.90
22984;DHT22;11658;48.908;9.140;2022-10-16T11:17:33;23.60;99.90
22984;DHT22;11658;48.908;9.140;2022-10-16T11:20:19;23.30;99.90
22984;DHT22;11658;48.908;9.140;2022-10-16T11:22:47;23.20;99.90
22984;DHT22;11658;48.908;9.140;2022-10-16T11:25:28;23.10;99.90
22984;DHT22;11658;48.908;9.140;2022-10-16T11:39:21;23.20;99.90
22984;DHT22;11658;48.908;9.140;2022-10-16T11:47:44;23.10;99.90
22984;DHT22;11658;48.908;9.140;2022-10-16T11:53:13;23.20;99.90
22984;DHT22;11658;48.908;9.140;2022-10-16T11:55:42;23.40;99.90
22984;DHT22;11658;48.908;9.140;2022-10-16T12:06:33;23.60;99.90
22984;DHT22;11658;48.908;9.140;2022-10-16T12:08:59;23.80;99.90
22984;DHT22;11658;48.908;9.140;2022-10-16T12:17:44;23.70;99.90
22984;DHT22;11658;48.908;9.140;2022-10-16T12:19:57;23.60;99.90
22984;DHT22;11658;48.908;9.140;2022-10-16T12:22:27;23.50;99.90
22984;DHT22;11658;48.908;9.140;2022-10-16T12:24:54;23.50;99.90
22984;DHT22;11658;48.908;9.140;2022-10-16T12:27:31;23.50;99.90
22984;DHT22;11658;48.908;9.140;2022-10-16T12:30:02;23.50;99.90
22984;DHT22;11658;48.908;9.140;2022-10-16T12:32:36;23.40;99.90
22984;DHT22;11658;48.908;9.140;2022-10-16T12:35:03;23.30;99.90
22984;DHT22;11658;48.908;9.140;2022-10-16T12:37:34;23.20;99.90
22984;DHT22;11658;48.908;9.140;2022-10-16T12:40:14;22.90;99.90
22984;DHT22;11658;48.908;9.140;2022-10-16T12:42:43;22.80;99.90
22984;DHT22;11658;48.908;9.140;2022-10-16T12:47:54;22.80;99.90
22984;DHT22;11658;48.908;9.140;2022-10-16T12:50:37;22.60;99.90
22984;DHT22;11658;48.908;9.140;2022-10-16T12:53:21;22.60;99.90
22984;DHT22;11658;48.908;9.140;2022-10-16T13:01:37;22.70;99.90
22984;DHT22;11658;48.908;9.140;2022-10-16T13:04:18;22.90;99.90
22984;DHT22;11658;48.908;9.140;2022-10-16T13:06:56;23.10;99.90
22984;DHT22;11658;48.908;9.140;2022-10-16T13:09:53;23.10;99.90
22984;DHT22;11658;48.908;9.140;2022-10-16T13:18:00;23.40;99.90
22984;DHT22;11658;48.908;9.140;2022-10-16T13:29:00;23.30;99.90
22984;DHT22;11658;48.908;9.140;2022-10-16T13:31:27;23.30;99.90
22984;DHT22;11658;48.908;9.140;2022-10-16T13:33:58;23.30;99.90
22984;DHT22;11658;48.908;9.140;2022-10-16T13:36:30;23.20;99.90
22984;DHT22;11658;48.908;9.140;2022-10-16T13:39:12;23.10;99.90
22984;DHT22;11658;48.908;9.140;2022-10-16T13:41:38;23.30;99.90
22984;DHT22;11658;48.908;9.140;2022-10-16T13:44:07;23.40;99.90
22984;DHT22;11658;48.908;9.140;2022-10-16T13:46:34;23.40;99.90
22984;DHT22;11658;48.908;9.140;2022-10-16T13:49:13;23.30;99.90
22984;DHT22;11658;48.908;9.140;2022-10-16T13:51:38;23.30;99.90
22984;DHT22;11658;48.908;9.140;2022-10-16T13:54:04;23.20;99.90
22984;DHT22;11658;48.908;9.140;2022-10-16T13:56:31;23.40;99.90
22984;DHT22;11658;48.908;9.140;2022-10-16T14:01:27;23.70;99.90
22984;DHT22;11658;48.908;9.140;2022-10-16T14:04:01;23.60;99.90
22984;DHT22;11658;48.908;9.140;2022-10-16T14:06:30;23.40;99.90
22984;DHT22;11658;48.908;9.140;2022-10-16T14:09:38;23.20;99.90
22984;DHT22;11658;48.908;9.140;2022-10-16T14:11:48;23.00;99.90
22984;DHT22;11658;48.908;9.140;2022-10-16T14:14:17;22.90;99.90
22984;DHT22;11658;48.908;9.140;2022-10-16T14:16:43;22.70;99.90
22984;DHT22;11658;48.908;9.140;2022-10-16T14:19:29;22.60;99.90
22984;DHT22;11658;48.908;9.140;2022-10-16T14:21:56;22.50;99.90
22984;DHT22;11658;48.908;9.140;2022-10-16T14:26:51;22.50;99.90
22984;DHT22;11658;48.908;9.140;2022-10-16T14:29:20;22.40;99.90
22984;DHT22;11658;48.908;9.140;2022-10-16T14:31:56;22.40;99.90
22984;DHT22;11658;48.908;9.140;2022-10-16T14:34:32;22.30;99.90
22984;DHT22;11658;48.908;9.140;2022-10-16T14:37:01;22.30;99.90
22984;DHT22;11658;48.908;9.140;2022-10-16T14:39:30;22.40;99.90
22984;DHT22;11658;48.908;9.140;2022-10-16T14:41:57;22.30;99.90
22984;DHT22;11658;48.908;9.140;2022-10-16T14:44:31;22.40;99.90
22984;DHT22;11658;48.908;9.140;2022-10-16T14:46:57;22.40;99.90
22984;DHT22;11658;48.908;9.140;2022-10-16T14:49:25;22.40;99.90
22984;DHT22;11658;48.908;9.140;2022-10-16T14:51:51;22.50;99.90
22984;DHT22;11658;48.908;9.140;2022-10-16T14:54:18;22.40;99.90
22984;DHT22;11658;48.908;9.140;2022-10-16T14:56:53;22.40;99.90
22984;DHT22;11658;48.908;9.140;2022-10-16T14:59:27;22.30;99.90
22984;DHT22;11658;48.908;9.140;2022-10-16T15:01:54;22.50;99.90
22984;DHT22;11658;48.908;9.140;2022-10-16T15:04:19;22.40;99.90
22984;DHT22;11658;48.908;9.140;2022-10-16T15:06:45;22.40;99.90
22984;DHT22;11658;48.908;9.140;2022-10-16T15:09:11;22.40;99.90
22984;DHT22;11658;48.908;9.140;2022-10-16T15:11:37;22.40;99.90
22984;DHT22;11658;48.908;9.140;2022-10-16T15:14:03;22.40;99.90
22984;DHT22;11658;48.908;9.140;2022-10-16T15:16:29;22.50;99.90
22984;DHT22;11658;48.908;9.140;2022-10-16T15:18:55;22.50;99.90
22984;DHT22;11658;48.908;9.140;2022-10-16T15:21:28;22.40;99.90
22984;DHT22;11658;48.908;9.140;2022-10-16T15:23:55;22.30;99.90
22984;DHT22;11658;48.908;9.140;2022-10-16T15:26:23;22.10;99.90
22984;DHT22;11658;48.908;9.140;2022-10-16T15:28:49;22.00;99.90
22984;DHT22;11658;48.908;9.140;2022-10-16T15:31:14;21.90;99.90
22984;DHT22;11658;48.908;9.140;2022-10-16T15:33:40;21.80;99.90
22984;DHT22;11658;48.908;9.140;2022-10-16T15:36:06;21.80;99.90
22984;DHT22;11658;48.908;9.140;2022-10-16T15:38:32;21.70;99.90
22984;DHT22;11658;48.908;9.140;2022-10-16T15:40:58;21.60;99.90
22984;DHT22;11658;48.908;9.140;2022-10-16T15:43:23;21.60;99.90
22984;DHT22;11658;48.908;9.140;2022-10-16T15:45:59;21.60;99.90
22984;DHT22;11658;48.908;9.140;2022-10-16T15:48:30;21.70;99.90
22984;DHT22;11658;48.908;9.140;2022-10-16T15:50:56;21.70;99.90
22984;DHT22;11658;48.908;9.140;2022-10-16T15:53:22;21.70;99.90
22984;DHT22;11658;48.908;9.140;2022-10-16T15:55:47;21.70;99.90
22984;DHT22;11658;48.908;9.140;2022-10-16T15:58:13;21.60;99.90
22984;DHT22;11658;48.908;9.140;2022-10-16T16:00:38;21.60;99.90
22984;DHT22;11658;48.908;9.140;2022-10-16T16:03:04;21.50;99.90
22984;DHT22;11658;48.908;9.140;2022-10-16T16:05:29;21.50;99.90
22984;DHT22;11658;48.908;9.140;2022-10-16T16:07:56;21.40;99.90
22984;DHT22;11658;48.908;9.140;2022-10-16T16:10:22;21.20;99.90
22984;DHT22;11658;48.908;9.140;2022-10-16T16:12:48;21.20;99.90
22984;DHT22;11658;48.908;9.140;2022-10-16T16:15:19;21.10;99.90
22984;DHT22;11658;48.908;9.140;2022-10-16T16:17:45;21.00;99.90
22984;DHT22;11658;48.908;9.140;2022-10-16T16:20:11;20.90;99.90
22984;DHT22;11658;48.908;9.140;2022-10-16T16:22:36;20.80;99.90
22984;DHT22;11658;48.908;9.140;2022-10-16T16:25:02;20.70;99.90
22984;DHT22;11658;48.908;9.140;2022-10-16T16:27:28;20.60;99.90
22984;DHT22;11658;48.908;9.140;2022-10-16T16:29:55;20.50;99.90
22984;DHT22;11658;48.908;9.140;2022-10-16T16:32:21;20.40;99.90
22984;DHT22;11658;48.908;9.140;2022-10-16T16:34:47;20.30;99.90
22984;DHT22;11658;48.908;9.140;2022-10-16T16:37:12;20.20;99.90
22984;DHT22;11658;48.908;9.140;2022-10-16T16:39:38;20.10;99.90
22984;DHT22;11658;48.908;9.140;2022-10-16T16:42:04;20.10;99.90
22984;DHT22;11658;48.908;9.140;2022-10-16T16:44:31;20.10;99.90
22984;DHT22;11658;48.908;9.140;2022-10-16T16:46:57;20.10;99.90
22984;DHT22;11658;48.908;9.140;2022-10-16T16:49:22;20.10;99.90
22984;DHT22;11658;48.908;9.140;2022-10-16T16:51:48;20.10;99.90
22984;DHT22;11658;48.908;9.140;2022-10-16T16:54:14;20.00;99.90
22984;DHT22;11658;48.908;9.140;2022-10-16T16:56:40;20.00;99.90
22984;DHT22;11658;48.908;9.140;2022-10-16T16:59:16;19.90;99.90
22984;DHT22;11658;48.908;9.140;2022-10-16T17:01:43;20.00;99.90
22984;DHT22;11658;48.908;9.140;2022-10-16T17:04:09;19.90;99.90
22984;DHT22;11658;48.908;9.140;2022-10-16T17:06:36;19.80;99.90
22984;DHT22;11658;48.908;9.140;2022-10-16T17:09:04;19.70;99.90
22984;DHT22;11658;48.908;9.140;2022-10-16T17:11:30;19.60;99.90
22984;DHT22;11658;48.908;9.140;2022-10-16T17:13:57;19.60;99.90
22984;DHT22;11658;48.908;9.140;2022-10-16T17:16:29;19.60;99.90
22984;DHT22;11658;48.908;9.140;2022-10-16T17:18:54;19.50;99.90
22984;DHT22;11658;48.908;9.140;2022-10-16T17:21:20;19.40;99.90
22984;DHT22;11658;48.908;9.140;2022-10-16T17:23:46;19.40;99.90
22984;DHT22;11658;48.908;9.140;2022-10-16T17:26:14;19.40;99.90
22984;DHT22;11658;48.908;9.140;2022-10-16T17:28:40;19.30;99.90
22984;DHT22;11658;48.908;9.140;2022-10-16T17:33:36;19.30;99.90
22984;DHT22;11658;48.908;9.140;2022-10-16T17:36:02;19.40;99.90
22984;DHT22;11658;48.908;9.140;2022-10-16T17:38:28;19.20;99.90
22984;DHT22;11658;48.908;9.140;2022-10-16T17:40:53;19.10;99.90
22984;DHT22;11658;48.908;9.140;2022-10-16T17:43:19;19.10;99.90
22984;DHT22;11658;48.908;9.140;2022-10-16T17:45:44;19.10;99.90
22984;DHT22;11658;48.908;9.140;2022-10-16T17:48:10;19.00;99.90
22984;DHT22;11658;48.908;9.140;2022-10-16T17:50:39;19.00;99.90
22984;DHT22;11658;48.908;9.140;2022-10-16T17:53:05;19.00;99.90
22984;DHT22;11658;48.908;9.140;2022-10-16T17:55:37;19.00;99.90
22984;DHT22;11658;48.908;9.140;2022-10-16T17:58:02;19.00;99.90
22984;DHT22;11658;48.908;9.140;2022-10-16T18:00:28;19.00;99.90
22984;DHT22;11658;48.908;9.140;2022-10-16T18:02:53;18.90;99.90
22984;DHT22;11658;48.908;9.140;2022-10-16T18:05:19;18.90;99.90
22984;DHT22;11658;48.908;9.140;2022-10-16T18:07:44;18.90;99.90
22984;DHT22;11658;48.908;9.140;2022-10-16T18:10:10;18.70;99.90
22984;DHT22;11658;48.908;9.140;2022-10-16T18:12:36;18.80;99.90
22984;DHT22;11658;48.908;9.140;2022-10-16T18:15:02;18.80;99.90
22984;DHT22;11658;48.908;9.140;2022-10-16T18:17:28;18.70;99.90
22984;DHT22;11658;48.908;9.140;2022-10-16T18:19:55;18.60;99.90
22984;DHT22;11658;48.908;9.140;2022-10-16T18:22:21;18.70;99.90
22984;DHT22;11658;48.908;9.140;2022-10-16T18:24:47;18.60;99.90
22984;DHT22;11658;48.908;9.140;2022-10-16T18:27:13;18.60;99.90
22984;DHT22;11658;48.908;9.140;2022-10-16T18:29:39;18.60;99.90
22984;DHT22;11658;48.908;9.140;2022-10-16T18:32:04;18.60;99.90
22984;DHT22;11658;48.908;9.140;2022-10-16T18:34:30;18.50;99.90
22984;DHT22;11658;48.908;9.140;2022-10-16T18:36:55;18.50;99.90
22984;DHT22;11658;48.908;9.140;2022-10-16T18:39:22;18.50;99.90
22984;DHT22;11658;48.908;9.140;2022-10-16T18:41:48;18.40;99.90
22984;DHT22;11658;48.908;9.140;2022-10-16T18:44:15;18.50;99.90
22984;DHT22;11658;48.908;9.140;2022-10-16T18:46:41;18.40;99.90
22984;DHT22;11658;48.908;9.140;2022-10-16T18:49:07;18.30;99.90
22984;DHT22;11658;48.908;9.140;2022-10-16T18:51:35;18.30;99.90
22984;DHT22;11658;48.908;9.140;2022-10-16T18:54:05;18.20;99.90
22984;DHT22;11658;48.908;9.140;2022-10-16T18:56:31;18.20;99.90
22984;DHT22;11658;48.908;9.140;2022-10-16T18:59:01;18.20;99.90
22984;DHT22;11658;48.908;9.140;2022-10-16T19:01:29;18.20;99.90
22984;DHT22;11658;48.908;9.140;2022-10-16T19:04:01;18.20;99.90
22984;DHT22;11658;48.908;9.140;2022-10-16T19:06:27;18.10;99.90
22984;DHT22;11658;48.908;9.140;2022-10-16T19:08:55;18.10;99.90
22984;DHT22;11658;48.908;9.140;2022-10-16T19:11:23;18.00;99.90
22984;DHT22;11658;48.908;9.140;2022-10-16T19:13:49;18.00;99.90
22984;DHT22;11658;48.908;9.140;2022-10-16T19:16:20;17.90;99.90
22984;DHT22;11658;48.908;9.140;2022-10-16T19:18:47;17.80;99.90
22984;DHT22;11658;48.908;9.140;2022-10-16T19:21:13;17.70;99.90
22984;DHT22;11658;48.908;9.140;2022-10-16T19:23:39;17.70;99.90
22984;DHT22;11658;48.908;9.140;2022-10-16T19:26:08;17.60;99.90
22984;DHT22;11658;48.908;9.140;2022-10-16T19:28:35;17.50;99.90
22984;DHT22;11658;48.908;9.140;2022-10-16T19:31:07;17.50;99.90
22984;DHT22;11658;48.908;9.140;2022-10-16T19:33:34;17.50;99.90
22984;DHT22;11658;48.908;9.140;2022-10-16T19:38:36;17.50;99.90
22984;DHT22;11658;48.908;9.140;2022-10-16T19:41:12;17.50;99.90
22984;DHT22;11658;48.908;9.140;2022-10-16T19:43:38;17.50;99.90
22984;DHT22;11658;48.908;9.140;2022-10-16T19:46:10;17.50;99.90
22984;DHT22;11658;48.908;9.140;2022-10-16T19:48:36;17.50;99.90
22984;DHT22;11658;48.908;9.140;2022-10-16T19:51:03;17.40;99.90
22984;DHT22;11658;48.908;9.140;2022-10-16T19:53:29;17.40;99.90
22984;DHT22;11658;48.908;9.140;2022-10-16T19:55:56;17.40;99.90
22984;DHT22;11658;48.908;9.140;2022-10-16T19:58:22;17.40;99.90
22984;DHT22;11658;48.908;9.140;2022-10-16T20:00:48;17.40;99.90
22984;DHT22;11658;48.908;9.140;2022-10-16T20:03:14;17.40;99.90
22984;DHT22;11658;48.908;9.140;2022-10-16T20:05:49;17.40;99.90
22984;DHT22;11658;48.908;9.140;2022-10-16T20:08:15;17.40;99.90
22984;DHT22;11658;48.908;9.140;2022-10-16T20:10:50;17.40;99.90
22984;DHT22;11658;48.908;9.140;2022-10-16T20:13:17;17.40;99.90
22984;DHT22;11658;48.908;9.140;2022-10-16T20:15:42;17.30;99.90
22984;DHT22;11658;48.908;9.140;2022-10-16T20:18:08;17.30;99.90
22984;DHT22;11658;48.908;9.140;2022-10-16T20:20:38;17.30;99.90
22984;DHT22;11658;48.908;9.140;2022-10-16T20:23:05;17.30;99.90
22984;DHT22;11658;48.908;9.140;2022-10-16T20:25:42;17.20;99.90
22984;DHT22;11658;48.908;9.140;2022-10-16T20:28:10;17.20;99.90
22984;DHT22;11658;48.908;9.140;2022-10-16T20:30:38;17.20;99.90
22984;DHT22;11658;48.908;9.140;2022-10-16T20:33:04;17.20;99.90
22984;DHT22;11658;48.908;9.140;2022-10-16T20:35:37;17.10;99.90
22984;DHT22;11658;48.908;9.140;2022-10-16T20:38:03;17.00;99.90
22984;DHT22;11658;48.908;9.140;2022-10-16T20:40:29;17.00;99.90
22984;DHT22;11658;48.908;9.140;2022-10-16T20:42:55;17.00;99.90
22984;DHT22;11658;48.908;9.140;2022-10-16T20:45:20;17.00;99.90
22984;DHT22;11658;48.908;9.140;2022-10-16T20:47:46;16.90;99.90
22984;DHT22;11658;48.908;9.140;2022-10-16T20:50:12;16.90;99.90
22984;DHT22;11658;48.908;9.140;2022-10-16T20:52:39;16.80;99.90
22984;DHT22;11658;48.908;9.140;2022-10-16T20:55:05;16.70;99.90
22984;DHT22;11658;48.908;9.140;2022-10-16T20:57:30;16.60;99.90
22984;DHT22;11658;48.908;9.140;2022-10-16T20:59:56;16.60;99.90
